Time;durP1;ratioP1;P1;durP2;ratioP2;P2;SDS_P1;SDS_P2;PMS_P1;PMS_P2;Temp;Humidity;BMP_temperature;BMP_pressure;BME280_temperature;BME280_humidity;BME280_pressure;Samples;Min_cycle;Max_cycle;Signal;HPM_P1;HPM_P2
2022/12/16 00:00:21;;;;;;;;;;;0.30;99.90;;;;;;5088954;28;19955;-56
2022/12/16 00:02:48;;;;;;;;;;;0.30;99.90;;;;;;5089686;28;19924;-55
2022/12/16 00:05:15;;;;;;;;;;;0.30;99.90;;;;;;5091036;28;19962;-54
2022/12/16 00:07:42;;;;;;;;;;;0.30;99.90;;;;;;5088019;28;20398;-55
2022/12/16 00:10:08;;;;;;;;;;;0.40;99.90;;;;;;5088194;28;19939;-55
2022/12/16 00:12:37;;;;;;;;;;;0.40;99.90;;;;;;5090503;28;19924;-55
2022/12/16 00:15:04;;;;;;;;;;;0.40;99.90;;;;;;5070894;28;19939;-55
2022/12/16 00:17:30;;;;;;;;;;;0.30;99.90;;;;;;5090889;28;20685;-55
2022/12/16 00:19:57;;;;;;;;;;;0.30;99.90;;;;;;5092233;28;19924;-56
2022/12/16 00:22:24;;;;;;;;;;;0.40;99.90;;;;;;5088513;28;19925;-55
2022/12/16 00:24:51;;;;;;;;;;;0.30;99.90;;;;;;5093164;28;19924;-55
2022/12/16 00:27:18;;;;;;;;;;;0.40;99.90;;;;;;5092337;28;19932;-55
2022/12/16 00:29:46;;;;;;;;;;;0.40;99.90;;;;;;5091571;28;20333;-55
2022/12/16 00:32:12;;;;;;;;;;;0.40;99.90;;;;;;5085837;28;19938;-55
2022/12/16 00:34:39;;;;;;;;;;;0.40;99.90;;;;;;5107360;22;19935;-74
2022/12/16 00:37:06;;;;;;;;;;;0.40;99.90;;;;;;5064942;28;19931;-74
2022/12/16 00:39:33;;;;;;;;;;;0.40;99.90;;;;;;5062731;28;19933;-74
2022/12/16 00:42:00;;;;;;;;;;;0.40;99.90;;;;;;5063963;28;19964;-75
2022/12/16 00:44:26;;;;;;;;;;;0.40;99.90;;;;;;5060542;28;20306;-74
2022/12/16 00:46:55;;;;;;;;;;;0.40;99.90;;;;;;5038995;28;19932;-74
2022/12/16 00:49:21;;;;;;;;;;;0.40;99.90;;;;;;5055019;28;20003;-74
2022/12/16 00:51:48;;;;;;;;;;;0.40;99.90;;;;;;5055553;28;20013;-74
2022/12/16 00:54:15;;;;;;;;;;;0.40;99.90;;;;;;5064879;28;19924;-74
2022/12/16 00:56:42;;;;;;;;;;;0.30;99.90;;;;;;5056925;28;19960;-74
2022/12/16 00:59:09;;;;;;;;;;;0.40;99.90;;;;;;5062316;28;19928;-75
2022/12/16 01:01:35;;;;;;;;;;;0.40;99.90;;;;;;5046887;28;20015;-74
2022/12/16 01:04:04;;;;;;;;;;;0.40;99.90;;;;;;5039961;28;19935;-74
2022/12/16 01:06:31;;;;;;;;;;;0.40;99.90;;;;;;5060838;28;20621;-73
2022/12/16 01:08:57;;;;;;;;;;;0.40;99.90;;;;;;5056342;28;19932;-74
2022/12/16 01:11:24;;;;;;;;;;;0.40;99.90;;;;;;5040391;28;20030;-74
2022/12/16 01:13:51;;;;;;;;;;;0.40;99.90;;;;;;5063787;28;19932;-74
2022/12/16 01:16:18;;;;;;;;;;;0.40;99.90;;;;;;5055933;28;19967;-75
2022/12/16 01:18:45;;;;;;;;;;;0.40;99.90;;;;;;5062726;28;19942;-74
2022/12/16 01:21:14;;;;;;;;;;;0.40;99.90;;;;;;5061245;28;19932;-74
2022/12/16 01:23:41;;;;;;;;;;;0.40;99.90;;;;;;5059508;28;19924;-74
2022/12/16 01:26:09;;;;;;;;;;;0.40;99.90;;;;;;5037629;28;20371;-74
2022/12/16 01:28:36;;;;;;;;;;;0.40;99.90;;;;;;5061535;28;20408;-74
2022/12/16 01:31:03;;;;;;;;;;;0.40;99.90;;;;;;5057748;28;19932;-74
2022/12/16 01:33:31;;;;;;;;;;;0.40;99.90;;;;;;5053827;28;20023;-74
2022/12/16 01:35:58;;;;;;;;;;;0.40;99.90;;;;;;5054275;28;19960;-74
2022/12/16 01:38:26;;;;;;;;;;;0.40;99.90;;;;;;5059338;28;19925;-74
2022/12/16 01:40:53;;;;;;;;;;;0.40;99.90;;;;;;5061401;28;20347;-74
2022/12/16 01:43:23;;;;;;;;;;;0.40;99.90;;;;;;5037335;28;19978;-74
2022/12/16 01:45:50;;;;;;;;;;;0.40;99.90;;;;;;5041383;28;19932;-74
2022/12/16 01:48:20;;;;;;;;;;;0.40;99.90;;;;;;5062074;28;19924;-74
2022/12/16 01:50:48;;;;;;;;;;;0.40;99.90;;;;;;5056609;28;20366;-74
2022/12/16 01:53:16;;;;;;;;;;;0.40;99.90;;;;;;5058453;28;19954;-74
2022/12/16 01:55:48;;;;;;;;;;;0.40;99.90;;;;;;5058021;28;20135;-74
2022/12/16 01:58:17;;;;;;;;;;;0.40;99.90;;;;;;5038610;28;20354;-74
2022/12/16 02:00:44;;;;;;;;;;;0.40;99.90;;;;;;5040852;28;20019;-74
2022/12/16 02:03:11;;;;;;;;;;;0.50;99.90;;;;;;5040314;28;19925;-73
2022/12/16 02:05:40;;;;;;;;;;;0.40;99.90;;;;;;5058995;28;19975;-74
2022/12/16 02:08:10;;;;;;;;;;;0.50;99.90;;;;;;5058162;28;19924;-74
2022/12/16 02:10:45;;;;;;;;;;;0.50;99.90;;;;;;5038491;28;20012;-74
2022/12/16 02:13:18;;;;;;;;;;;0.50;99.90;;;;;;5036966;28;19935;-74
2022/12/16 02:15:50;;;;;;;;;;;0.40;99.90;;;;;;5052680;28;19964;-74
2022/12/16 02:18:22;;;;;;;;;;;0.50;99.90;;;;;;5060650;28;19944;-74
2022/12/16 02:21:07;;;;;;;;;;;0.40;99.90;;;;;;5074102;28;19963;-74
2022/12/16 02:23:53;;;;;;;;;;;0.50;99.90;;;;;;5078870;28;20512;-74
2022/12/16 02:26:33;;;;;;;;;;;0.50;99.90;;;;;;5057772;28;20023;-73
2022/12/16 02:29:13;;;;;;;;;;;0.50;99.90;;;;;;5060951;28;19974;-74
2022/12/16 02:31:44;;;;;;;;;;;0.50;99.90;;;;;;5056933;28;19925;-73
2022/12/16 02:34:16;;;;;;;;;;;0.50;99.90;;;;;;5055644;28;19952;-74
2022/12/16 02:37:02;;;;;;;;;;;0.50;99.90;;;;;;5038959;28;19925;-74
2022/12/16 02:39:31;;;;;;;;;;;0.50;99.90;;;;;;5039283;28;19948;-76
2022/12/16 02:42:01;;;;;;;;;;;0.50;99.90;;;;;;5057111;28;20412;-74
2022/12/16 02:44:33;;;;;;;;;;;0.50;99.90;;;;;;5064130;28;20042;-75
2022/12/16 02:47:01;;;;;;;;;;;0.50;99.90;;;;;;5057942;28;20366;-74
2022/12/16 02:49:46;;;;;;;;;;;0.50;99.90;;;;;;5060182;28;19928;-74
2022/12/16 02:52:13;;;;;;;;;;;0.50;99.90;;;;;;5060547;28;19970;-74
2022/12/16 02:54:40;;;;;;;;;;;0.50;99.90;;;;;;5064638;28;20027;-74
2022/12/16 02:57:12;;;;;;;;;;;0.50;99.90;;;;;;5059650;28;19964;-74
2022/12/16 02:59:43;;;;;;;;;;;0.50;99.90;;;;;;5058587;28;20393;-74
2022/12/16 03:02:15;;;;;;;;;;;0.50;99.90;;;;;;5040747;28;19969;-74
2022/12/16 03:04:44;;;;;;;;;;;0.40;99.90;;;;;;5061371;28;22453;-74
2022/12/16 03:07:13;;;;;;;;;;;0.50;99.90;;;;;;5037246;28;20386;-75
2022/12/16 03:09:41;;;;;;;;;;;0.40;99.90;;;;;;5059054;28;20051;-74
2022/12/16 03:12:09;;;;;;;;;;;0.50;99.90;;;;;;5042088;28;19932;-74
2022/12/16 03:14:38;;;;;;;;;;;0.50;99.90;;;;;;5058389;28;20065;-74
2022/12/16 03:17:05;;;;;;;;;;;0.50;99.90;;;;;;5058066;28;19935;-74
2022/12/16 03:19:34;;;;;;;;;;;0.50;99.90;;;;;;5058203;28;19934;-74
2022/12/16 03:22:02;;;;;;;;;;;0.50;99.90;;;;;;5058688;28;20359;-74
2022/12/16 03:24:29;;;;;;;;;;;0.40;99.90;;;;;;5060142;28;19925;-74
2022/12/16 03:27:01;;;;;;;;;;;0.50;99.90;;;;;;5063830;28;19928;-74
2022/12/16 03:29:35;;;;;;;;;;;0.50;99.90;;;;;;5060943;28;19931;-74
2022/12/16 03:32:05;;;;;;;;;;;0.50;99.90;;;;;;5060722;28;19924;-74
2022/12/16 03:34:35;;;;;;;;;;;0.50;99.90;;;;;;5042011;28;19932;-74
2022/12/16 03:37:03;;;;;;;;;;;0.50;99.90;;;;;;5062530;28;19925;-74
2022/12/16 03:39:33;;;;;;;;;;;0.40;99.90;;;;;;5061665;28;19971;-74
2022/12/16 03:42:01;;;;;;;;;;;0.50;99.90;;;;;;5062908;28;19924;-74
2022/12/16 03:44:28;;;;;;;;;;;0.50;99.90;;;;;;5060621;28;20301;-74
2022/12/16 03:46:54;;;;;;;;;;;0.50;99.90;;;;;;5041410;28;19978;-74
2022/12/16 03:49:22;;;;;;;;;;;0.50;99.90;;;;;;5055616;28;19951;-74
2022/12/16 03:51:50;;;;;;;;;;;0.50;99.90;;;;;;5058246;28;20003;-74
2022/12/16 03:54:17;;;;;;;;;;;0.50;99.90;;;;;;5061091;28;20386;-74
2022/12/16 03:56:44;;;;;;;;;;;0.40;99.90;;;;;;5061788;28;20275;-73
2022/12/16 03:59:11;;;;;;;;;;;0.50;99.90;;;;;;5060926;28;19925;-74
2022/12/16 04:01:38;;;;;;;;;;;0.50;99.90;;;;;;5043462;28;19925;-74
2022/12/16 04:04:05;;;;;;;;;;;0.50;99.90;;;;;;5059854;28;19924;-73
2022/12/16 04:06:32;;;;;;;;;;;0.50;99.90;;;;;;5036452;28;20056;-74
2022/12/16 04:09:00;;;;;;;;;;;0.50;99.90;;;;;;5040855;28;19968;-74
2022/12/16 04:25:16;;;;;;;;;;;0.40;99.90;;;;;;5059395;28;19929;-74
2022/12/16 04:27:45;;;;;;;;;;;0.40;99.90;;;;;;5055236;28;19933;-74
2022/12/16 04:30:19;;;;;;;;;;;0.40;99.90;;;;;;5039678;28;19954;-74
